sensor_id;sensor_type;location;lat;lon;timestamp;pressure;altitude;pressure_sealevel;temperature;humidity
76868;BME280;66168;45.478;11.060;2024-02-26T00:02:03;100013.82;;;10.11;64.49
76868;BME280;66168;45.478;11.060;2024-02-26T00:04:30;100011.13;;;10.13;64.83
76868;BME280;66168;45.478;11.060;2024-02-26T00:06:57;100009.98;;;10.14;64.93
76868;BME280;66168;45.478;11.060;2024-02-26T00:09:25;100002.30;;;10.16;64.95
76868;BME280;66168;45.478;11.060;2024-02-26T00:11:51;99998.20;;;10.18;64.99
76868;BME280;66168;45.478;11.060;2024-02-26T00:14:18;99993.69;;;10.20;65.03
76868;BME280;66168;45.478;11.060;2024-02-26T00:16:45;99992.15;;;10.22;65.00
76868;BME280;66168;45.478;11.060;2024-02-26T00:19:12;99987.02;;;10.23;65.28
76868;BME280;66168;45.478;11.060;2024-02-26T00:21:42;99984.02;;;10.26;65.11
76868;BME280;66168;45.478;11.060;2024-02-26T00:24:09;99982.11;;;10.28;64.99
76868;BME280;66168;45.478;11.060;2024-02-26T00:26:35;99981.64;;;10.29;64.88
76868;BME280;66168;45.478;11.060;2024-02-26T00:29:03;99976.83;;;10.31;64.94
76868;BME280;66168;45.478;11.060;2024-02-26T00:31:30;99972.86;;;10.32;64.77
76868;BME280;66168;45.478;11.060;2024-02-26T00:33:57;99972.73;;;10.33;64.85
76868;BME280;66168;45.478;11.060;2024-02-26T00:36:24;99970.00;;;10.33;64.72
76868;BME280;66168;45.478;11.060;2024-02-26T00:38:51;99964.64;;;10.35;64.65
76868;BME280;66168;45.478;11.060;2024-02-26T00:41:18;99959.34;;;10.36;64.60
76868;BME280;66168;45.478;11.060;2024-02-26T00:43:45;99952.12;;;10.39;64.58
76868;BME280;66168;45.478;11.060;2024-02-26T00:46:12;99951.08;;;10.41;64.46
76868;BME280;66168;45.478;11.060;2024-02-26T00:48:39;99946.57;;;10.43;64.26
76868;BME280;66168;45.478;11.060;2024-02-26T00:51:06;99943.84;;;10.45;64.05
76868;BME280;66168;45.478;11.060;2024-02-26T00:53:34;99938.33;;;10.47;63.99
76868;BME280;66168;45.478;11.060;2024-02-26T00:56:01;99939.20;;;10.50;63.28
76868;BME280;66168;45.478;11.060;2024-02-26T00:58:28;99940.78;;;10.52;62.53
76868;BME280;66168;45.478;11.060;2024-02-26T01:00:55;99939.88;;;10.57;62.24
76868;BME280;66168;45.478;11.060;2024-02-26T01:03:22;99932.42;;;10.61;62.07
76868;BME280;66168;45.478;11.060;2024-02-26T01:05:49;99928.83;;;10.66;61.95
76868;BME280;66168;45.478;11.060;2024-02-26T01:08:16;99922.70;;;10.69;62.01
76868;BME280;66168;45.478;11.060;2024-02-26T01:10:43;99920.31;;;10.73;62.00
76868;BME280;66168;45.478;11.060;2024-02-26T01:13:10;99919.05;;;10.76;62.11
76868;BME280;66168;45.478;11.060;2024-02-26T01:15:36;99917.35;;;10.78;62.18
76868;BME280;66168;45.478;11.060;2024-02-26T01:18:03;99909.73;;;10.79;62.08
76868;BME280;66168;45.478;11.060;2024-02-26T01:20:30;99909.87;;;10.81;62.01
76868;BME280;66168;45.478;11.060;2024-02-26T01:22:57;99905.41;;;10.81;61.88
76868;BME280;66168;45.478;11.060;2024-02-26T01:25:24;99902.18;;;10.82;61.67
76868;BME280;66168;45.478;11.060;2024-02-26T01:27:51;99899.15;;;10.83;61.41
76868;BME280;66168;45.478;11.060;2024-02-26T01:30:17;99894.91;;;10.84;61.30
76868;BME280;66168;45.478;11.060;2024-02-26T01:32:45;99888.82;;;10.85;61.13
76868;BME280;66168;45.478;11.060;2024-02-26T01:35:12;99886.07;;;10.85;61.13
76868;BME280;66168;45.478;11.060;2024-02-26T01:37:39;99886.73;;;10.86;61.24
76868;BME280;66168;45.478;11.060;2024-02-26T01:40:07;99885.63;;;10.85;61.38
76868;BME280;66168;45.478;11.060;2024-02-26T01:42:34;99877.35;;;10.84;61.42
76868;BME280;66168;45.478;11.060;2024-02-26T01:45:01;99877.92;;;10.84;61.54
76868;BME280;66168;45.478;11.060;2024-02-26T01:47:28;99877.59;;;10.84;61.49
76868;BME280;66168;45.478;11.060;2024-02-26T01:49:55;99868.46;;;10.83;61.14
76868;BME280;66168;45.478;11.060;2024-02-26T01:52:23;99865.30;;;10.83;61.02
76868;BME280;66168;45.478;11.060;2024-02-26T01:54:50;99859.55;;;10.84;60.95
76868;BME280;66168;45.478;11.060;2024-02-26T01:57:17;99853.00;;;10.84;60.90
76868;BME280;66168;45.478;11.060;2024-02-26T01:59:45;99849.86;;;10.84;60.87
76868;BME280;66168;45.478;11.060;2024-02-26T02:02:12;99852.93;;;10.85;60.92
76868;BME280;66168;45.478;11.060;2024-02-26T02:04:40;99852.56;;;10.85;60.88
76868;BME280;66168;45.478;11.060;2024-02-26T02:07:07;99851.34;;;10.87;60.87
76868;BME280;66168;45.478;11.060;2024-02-26T02:09:34;99846.31;;;10.86;60.75
76868;BME280;66168;45.478;11.060;2024-02-26T02:12:01;99841.51;;;10.84;60.78
76868;BME280;66168;45.478;11.060;2024-02-26T02:14:28;99844.20;;;10.83;60.80
76868;BME280;66168;45.478;11.060;2024-02-26T02:16:55;99840.23;;;10.82;60.85
76868;BME280;66168;45.478;11.060;2024-02-26T02:19:22;99835.40;;;10.82;60.88
76868;BME280;66168;45.478;11.060;2024-02-26T02:21:49;99837.38;;;10.82;60.95
76868;BME280;66168;45.478;11.060;2024-02-26T02:24:16;99832.79;;;10.82;61.03
76868;BME280;66168;45.478;11.060;2024-02-26T02:26:42;99830.58;;;10.81;61.01
76868;BME280;66168;45.478;11.060;2024-02-26T02:29:09;99823.05;;;10.82;61.04
76868;BME280;66168;45.478;11.060;2024-02-26T02:31:36;99820.02;;;10.82;61.17
76868;BME280;66168;45.478;11.060;2024-02-26T02:34:03;99811.97;;;10.84;61.10
76868;BME280;66168;45.478;11.060;2024-02-26T02:36:30;99806.48;;;10.84;61.02
76868;BME280;66168;45.478;11.060;2024-02-26T02:38:57;99802.75;;;10.84;61.01
76868;BME280;66168;45.478;11.060;2024-02-26T02:41:24;99801.77;;;10.83;61.06
76868;BME280;66168;45.478;11.060;2024-02-26T02:43:53;99801.85;;;10.83;60.94
76868;BME280;66168;45.478;11.060;2024-02-26T02:46:19;99800.91;;;10.82;61.08
76868;BME280;66168;45.478;11.060;2024-02-26T02:48:46;99808.10;;;10.81;61.07
76868;BME280;66168;45.478;11.060;2024-02-26T02:51:13;99803.33;;;10.81;61.01
76868;BME280;66168;45.478;11.060;2024-02-26T02:53:40;99799.46;;;10.81;60.92
76868;BME280;66168;45.478;11.060;2024-02-26T02:56:07;99802.25;;;10.81;60.93
76868;BME280;66168;45.478;11.060;2024-02-26T02:58:33;99802.13;;;10.81;60.90
76868;BME280;66168;45.478;11.060;2024-02-26T03:01:00;99799.67;;;10.80;61.02
76868;BME280;66168;45.478;11.060;2024-02-26T03:03:27;99797.44;;;10.81;61.09
76868;BME280;66168;45.478;11.060;2024-02-26T03:05:55;99794.04;;;10.81;61.25
76868;BME280;66168;45.478;11.060;2024-02-26T03:08:23;99795.06;;;10.82;61.32
76868;BME280;66168;45.478;11.060;2024-02-26T03:10:52;99793.45;;;10.81;61.48
76868;BME280;66168;45.478;11.060;2024-02-26T03:13:19;99789.56;;;10.79;61.64
76868;BME280;66168;45.478;11.060;2024-02-26T03:15:46;99784.61;;;10.78;61.74
76868;BME280;66168;45.478;11.060;2024-02-26T03:18:13;99782.13;;;10.75;61.75
76868;BME280;66168;45.478;11.060;2024-02-26T03:20:40;99782.29;;;10.71;61.70
76868;BME280;66168;45.478;11.060;2024-02-26T03:23:07;99778.05;;;10.70;61.66
76868;BME280;66168;45.478;11.060;2024-02-26T03:25:36;99777.55;;;10.69;61.86
76868;BME280;66168;45.478;11.060;2024-02-26T03:28:03;99770.98;;;10.68;61.74
76868;BME280;66168;45.478;11.060;2024-02-26T03:30:30;99770.60;;;10.67;61.64
76868;BME280;66168;45.478;11.060;2024-02-26T03:32:56;99772.44;;;10.67;61.56
76868;BME280;66168;45.478;11.060;2024-02-26T03:35:23;99772.77;;;10.65;61.29
76868;BME280;66168;45.478;11.060;2024-02-26T03:37:50;99773.53;;;10.65;61.10
76868;BME280;66168;45.478;11.060;2024-02-26T03:40:18;99771.36;;;10.64;61.10
76868;BME280;66168;45.478;11.060;2024-02-26T03:42:46;99769.42;;;10.64;61.13
76868;BME280;66168;45.478;11.060;2024-02-26T03:45:13;99768.38;;;10.64;61.18
76868;BME280;66168;45.478;11.060;2024-02-26T03:47:40;99766.73;;;10.63;61.03
76868;BME280;66168;45.478;11.060;2024-02-26T03:50:07;99767.71;;;10.62;60.86
76868;BME280;66168;45.478;11.060;2024-02-26T03:52:34;99772.12;;;10.61;60.76
76868;BME280;66168;45.478;11.060;2024-02-26T03:55:01;99773.51;;;10.59;60.57
76868;BME280;66168;45.478;11.060;2024-02-26T03:57:27;99772.80;;;10.58;60.53
76868;BME280;66168;45.478;11.060;2024-02-26T03:59:54;99770.95;;;10.57;60.51
76868;BME280;66168;45.478;11.060;2024-02-26T04:02:21;99772.59;;;10.55;60.35
76868;BME280;66168;45.478;11.060;2024-02-26T04:04:49;99771.40;;;10.53;60.25
76868;BME280;66168;45.478;11.060;2024-02-26T04:07:16;99766.02;;;10.51;60.14
76868;BME280;66168;45.478;11.060;2024-02-26T04:09:44;99767.69;;;10.51;60.15
76868;BME280;66168;45.478;11.060;2024-02-26T04:12:11;99765.96;;;10.50;60.27
76868;BME280;66168;45.478;11.060;2024-02-26T04:14:38;99768.21;;;10.49;60.47
76868;BME280;66168;45.478;11.060;2024-02-26T04:17:04;99768.98;;;10.46;60.69
76868;BME280;66168;45.478;11.060;2024-02-26T04:19:31;99774.03;;;10.43;60.82
76868;BME280;66168;45.478;11.060;2024-02-26T04:21:59;99766.73;;;10.38;61.01
76868;BME280;66168;45.478;11.060;2024-02-26T04:24:26;99758.69;;;10.32;60.98
76868;BME280;66168;45.478;11.060;2024-02-26T04:26:53;99753.33;;;10.26;61.17
76868;BME280;66168;45.478;11.060;2024-02-26T04:29:19;99750.23;;;10.23;61.09
76868;BME280;66168;45.478;11.060;2024-02-26T04:31:46;99750.48;;;10.21;60.86
76868;BME280;66168;45.478;11.060;2024-02-26T04:34:13;99754.23;;;10.21;60.73
76868;BME280;66168;45.478;11.060;2024-02-26T04:36:40;99760.27;;;10.20;60.63
76868;BME280;66168;45.478;11.060;2024-02-26T04:39:07;99757.06;;;10.21;60.30
76868;BME280;66168;45.478;11.060;2024-02-26T04:41:34;99754.40;;;10.21;60.02
76868;BME280;66168;45.478;11.060;2024-02-26T04:44:01;99757.84;;;10.22;59.86
76868;BME280;66168;45.478;11.060;2024-02-26T04:46:28;99756.94;;;10.22;59.84
76868;BME280;66168;45.478;11.060;2024-02-26T04:48:55;99751.25;;;10.22;59.79
76868;BME280;66168;45.478;11.060;2024-02-26T04:51:24;99756.70;;;10.25;59.82
76868;BME280;66168;45.478;11.060;2024-02-26T04:53:51;99761.84;;;10.26;60.01
76868;BME280;66168;45.478;11.060;2024-02-26T04:56:23;99767.55;;;10.26;60.15
76868;BME280;66168;45.478;11.060;2024-02-26T04:58:50;99768.11;;;10.24;60.33
76868;BME280;66168;45.478;11.060;2024-02-26T05:01:17;99769.21;;;10.24;60.29
76868;BME280;66168;45.478;11.060;2024-02-26T05:03:44;99764.76;;;10.24;60.27
76868;BME280;66168;45.478;11.060;2024-02-26T05:06:11;99761.26;;;10.25;60.28
76868;BME280;66168;45.478;11.060;2024-02-26T05:08:38;99757.73;;;10.25;60.47
76868;BME280;66168;45.478;11.060;2024-02-26T05:11:05;99757.11;;;10.24;60.49
76868;BME280;66168;45.478;11.060;2024-02-26T05:13:35;99755.92;;;10.23;60.58
76868;BME280;66168;45.478;11.060;2024-02-26T05:16:02;99753.50;;;10.21;60.53
76868;BME280;66168;45.478;11.060;2024-02-26T05:18:29;99752.93;;;10.20;60.72
76868;BME280;66168;45.478;11.060;2024-02-26T05:20:56;99750.70;;;10.18;61.00
76868;BME280;66168;45.478;11.060;2024-02-26T05:23:23;99750.86;;;10.17;60.93
76868;BME280;66168;45.478;11.060;2024-02-26T05:25:50;99738.98;;;10.15;60.99
76868;BME280;66168;45.478;11.060;2024-02-26T05:28:16;99743.93;;;10.15;60.72
76868;BME280;66168;45.478;11.060;2024-02-26T05:30:47;99753.27;;;10.17;60.44
76868;BME280;66168;45.478;11.060;2024-02-26T05:33:14;99759.45;;;10.19;60.40
76868;BME280;66168;45.478;11.060;2024-02-26T05:35:44;99757.70;;;10.20;60.25
76868;BME280;66168;45.478;11.060;2024-02-26T05:38:11;99761.76;;;10.20;60.32
76868;BME280;66168;45.478;11.060;2024-02-26T05:40:38;99769.34;;;10.18;60.58
76868;BME280;66168;45.478;11.060;2024-02-26T05:43:05;99775.29;;;10.15;60.82
76868;BME280;66168;45.478;11.060;2024-02-26T05:45:32;99775.92;;;10.11;60.99
76868;BME280;66168;45.478;11.060;2024-02-26T05:48:00;99780.18;;;10.06;61.44
76868;BME280;66168;45.478;11.060;2024-02-26T05:50:27;99778.80;;;10.03;61.55
76868;BME280;66168;45.478;11.060;2024-02-26T05:52:54;99778.08;;;10.03;61.69
76868;BME280;66168;45.478;11.060;2024-02-26T05:55:20;99780.83;;;10.05;61.85
76868;BME280;66168;45.478;11.060;2024-02-26T05:57:47;99787.63;;;10.08;62.18
76868;BME280;66168;45.478;11.060;2024-02-26T06:00:16;99789.15;;;10.13;61.91
76868;BME280;66168;45.478;11.060;2024-02-26T06:02:43;99787.30;;;10.19;61.83
76868;BME280;66168;45.478;11.060;2024-02-26T06:05:10;99786.09;;;10.23;61.79
76868;BME280;66168;45.478;11.060;2024-02-26T06:07:37;99790.63;;;10.28;61.67
76868;BME280;66168;45.478;11.060;2024-02-26T06:10:04;99793.27;;;10.30;61.68
76868;BME280;66168;45.478;11.060;2024-02-26T06:12:31;99796.04;;;10.32;61.61
76868;BME280;66168;45.478;11.060;2024-02-26T06:14:59;99797.72;;;10.31;61.69
76868;BME280;66168;45.478;11.060;2024-02-26T06:17:28;99798.81;;;10.23;61.74
76868;BME280;66168;45.478;11.060;2024-02-26T06:19:55;99803.25;;;10.16;62.44
76868;BME280;66168;45.478;11.060;2024-02-26T06:22:22;99806.17;;;10.15;62.88
76868;BME280;66168;45.478;11.060;2024-02-26T06:24:48;99805.67;;;10.13;63.07
76868;BME280;66168;45.478;11.060;2024-02-26T06:27:15;99814.80;;;10.10;63.46
76868;BME280;66168;45.478;11.060;2024-02-26T06:29:42;99823.20;;;9.95;63.64
76868;BME280;66168;45.478;11.060;2024-02-26T06:32:09;99826.36;;;9.87;63.98
76868;BME280;66168;45.478;11.060;2024-02-26T06:34:36;99829.19;;;9.74;64.85
76868;BME280;66168;45.478;11.060;2024-02-26T06:37:05;99831.55;;;9.62;65.31
76868;BME280;66168;45.478;11.060;2024-02-26T06:39:32;99833.77;;;9.57;65.44
76868;BME280;66168;45.478;11.060;2024-02-26T06:41:59;99836.61;;;9.57;65.55
76868;BME280;66168;45.478;11.060;2024-02-26T06:44:29;99839.10;;;9.57;65.86
76868;BME280;66168;45.478;11.060;2024-02-26T06:46:59;99839.34;;;9.52;66.01
76868;BME280;66168;45.478;11.060;2024-02-26T06:49:27;99841.70;;;9.51;66.53
76868;BME280;66168;45.478;11.060;2024-02-26T06:51:54;99839.88;;;9.49;66.22
76868;BME280;66168;45.478;11.060;2024-02-26T06:54:21;99841.53;;;9.50;66.57
76868;BME280;66168;45.478;11.060;2024-02-26T06:56:48;99843.39;;;9.53;66.41
76868;BME280;66168;45.478;11.060;2024-02-26T06:59:15;99844.77;;;9.54;66.44
76868;BME280;66168;45.478;11.060;2024-02-26T07:01:42;99848.14;;;9.58;66.47
76868;BME280;66168;45.478;11.060;2024-02-26T07:04:09;99847.97;;;9.65;66.52
76868;BME280;66168;45.478;11.060;2024-02-26T07:06:37;99851.02;;;9.72;66.53
76868;BME280;66168;45.478;11.060;2024-02-26T07:09:04;99854.27;;;9.79;66.30
76868;BME280;66168;45.478;11.060;2024-02-26T07:11:31;99857.95;;;9.83;65.86
76868;BME280;66168;45.478;11.060;2024-02-26T07:13:58;99862.36;;;9.88;65.97
76868;BME280;66168;45.478;11.060;2024-02-26T07:16:25;99866.34;;;9.88;66.02
76868;BME280;66168;45.478;11.060;2024-02-26T07:18:53;99867.05;;;9.87;66.20
76868;BME280;66168;45.478;11.060;2024-02-26T07:21:20;99869.21;;;9.86;66.27
76868;BME280;66168;45.478;11.060;2024-02-26T07:23:47;99872.20;;;9.84;66.50
76868;BME280;66168;45.478;11.060;2024-02-26T07:26:14;99872.30;;;9.80;66.60
76868;BME280;66168;45.478;11.060;2024-02-26T07:28:41;99873.48;;;9.76;66.64
76868;BME280;66168;45.478;11.060;2024-02-26T07:31:08;99869.46;;;9.75;66.47
76868;BME280;66168;45.478;11.060;2024-02-26T07:33:35;99870.38;;;9.72;66.59
76868;BME280;66168;45.478;11.060;2024-02-26T07:36:02;99873.84;;;9.76;66.70
76868;BME280;66168;45.478;11.060;2024-02-26T07:38:29;99872.56;;;9.82;66.67
76868;BME280;66168;45.478;11.060;2024-02-26T07:41:08;99875.02;;;9.88;66.55
76868;BME280;66168;45.478;11.060;2024-02-26T07:43:38;99875.06;;;9.92;66.39
76868;BME280;66168;45.478;11.060;2024-02-26T07:46:05;99876.20;;;9.96;66.68
76868;BME280;66168;45.478;11.060;2024-02-26T07:48:31;99872.69;;;10.00;66.37
76868;BME280;66168;45.478;11.060;2024-02-26T07:50:59;99869.91;;;10.05;66.14
76868;BME280;66168;45.478;11.060;2024-02-26T07:53:27;99869.91;;;10.09;66.03
76868;BME280;66168;45.478;11.060;2024-02-26T07:55:54;99864.78;;;10.12;66.18
76868;BME280;66168;45.478;11.060;2024-02-26T07:58:22;99866.71;;;10.14;66.19
76868;BME280;66168;45.478;11.060;2024-02-26T08:00:50;99864.27;;;10.15;66.14
76868;BME280;66168;45.478;11.060;2024-02-26T08:03:17;99868.25;;;10.18;66.04
76868;BME280;66168;45.478;11.060;2024-02-26T08:05:43;99872.70;;;10.21;65.86
76868;BME280;66168;45.478;11.060;2024-02-26T08:08:11;99873.02;;;10.27;65.77
76868;BME280;66168;45.478;11.060;2024-02-26T08:10:37;99873.39;;;10.31;65.64
76868;BME280;66168;45.478;11.060;2024-02-26T08:13:04;99872.04;;;10.36;65.69
76868;BME280;66168;45.478;11.060;2024-02-26T08:15:36;99869.55;;;10.41;66.04
76868;BME280;66168;45.478;11.060;2024-02-26T08:18:05;99868.73;;;10.42;65.76
76868;BME280;66168;45.478;11.060;2024-02-26T08:20:32;99870.25;;;10.43;65.63
76868;BME280;66168;45.478;11.060;2024-02-26T08:22:59;99863.70;;;10.46;65.42
76868;BME280;66168;45.478;11.060;2024-02-26T08:25:26;99856.23;;;10.50;65.46
76868;BME280;66168;45.478;11.060;2024-02-26T08:27:53;99856.58;;;10.53;65.47
76868;BME280;66168;45.478;11.060;2024-02-26T08:30:20;99858.23;;;10.49;65.25
76868;BME280;66168;45.478;11.060;2024-02-26T08:32:50;99864.48;;;10.46;65.81
76868;BME280;66168;45.478;11.060;2024-02-26T08:35:19;99868.48;;;10.42;66.02
76868;BME280;66168;45.478;11.060;2024-02-26T08:37:47;99871.05;;;10.45;66.46
76868;BME280;66168;45.478;11.060;2024-02-26T08:40:15;99868.14;;;10.55;67.00
76868;BME280;66168;45.478;11.060;2024-02-26T08:42:42;99871.04;;;10.62;67.21
76868;BME280;66168;45.478;11.060;2024-02-26T08:45:09;99870.33;;;10.66;67.59
76868;BME280;66168;45.478;11.060;2024-02-26T08:47:36;99870.90;;;10.66;68.23
76868;BME280;66168;45.478;11.060;2024-02-26T08:50:04;99864.76;;;10.65;68.68
76868;BME280;66168;45.478;11.060;2024-02-26T08:52:31;99858.77;;;10.69;68.82
76868;BME280;66168;45.478;11.060;2024-02-26T08:54:58;99853.77;;;10.80;68.77
76868;BME280;66168;45.478;11.060;2024-02-26T08:57:25;99853.25;;;10.92;67.96
76868;BME280;66168;45.478;11.060;2024-02-26T08:59:54;99855.94;;;10.97;67.18
76868;BME280;66168;45.478;11.060;2024-02-26T09:02:21;99855.70;;;11.07;67.21
76868;BME280;66168;45.478;11.060;2024-02-26T09:04:48;99852.64;;;11.22;66.95
76868;BME280;66168;45.478;11.060;2024-02-26T09:07:14;99851.64;;;11.38;66.49
76868;BME280;66168;45.478;11.060;2024-02-26T09:09:41;99848.02;;;11.48;66.29
76868;BME280;66168;45.478;11.060;2024-02-26T09:12:08;99844.02;;;11.52;65.88
76868;BME280;66168;45.478;11.060;2024-02-26T09:14:36;99841.26;;;11.58;63.98
76868;BME280;66168;45.478;11.060;2024-02-26T09:17:02;99841.14;;;11.67;63.86
76868;BME280;66168;45.478;11.060;2024-02-26T09:19:30;99846.27;;;11.79;63.83
76868;BME280;66168;45.478;11.060;2024-02-26T09:21:57;99845.02;;;11.90;63.30
76868;BME280;66168;45.478;11.060;2024-02-26T09:24:25;99846.75;;;11.97;62.59
76868;BME280;66168;45.478;11.060;2024-02-26T09:26:52;99844.70;;;11.97;61.63
76868;BME280;66168;45.478;11.060;2024-02-26T09:29:19;99846.38;;;11.98;62.20
76868;BME280;66168;45.478;11.060;2024-02-26T09:31:46;99848.67;;;12.02;62.46
76868;BME280;66168;45.478;11.060;2024-02-26T09:34:15;99850.11;;;12.06;62.05
76868;BME280;66168;45.478;11.060;2024-02-26T09:36:43;99848.17;;;12.04;61.82
76868;BME280;66168;45.478;11.060;2024-02-26T09:39:10;99850.43;;;11.98;61.17
76868;BME280;66168;45.478;11.060;2024-02-26T09:41:38;99851.38;;;11.89;60.90
76868;BME280;66168;45.478;11.060;2024-02-26T09:44:06;99853.83;;;11.88;61.77
76868;BME280;66168;45.478;11.060;2024-02-26T09:46:33;99858.83;;;11.86;61.75
76868;BME280;66168;45.478;11.060;2024-02-26T09:49:00;99859.41;;;11.87;62.01
76868;BME280;66168;45.478;11.060;2024-02-26T09:51:27;99860.38;;;11.86;61.50
76868;BME280;66168;45.478;11.060;2024-02-26T09:53:59;99867.27;;;11.85;61.00
76868;BME280;66168;45.478;11.060;2024-02-26T09:56:30;99869.96;;;11.85;61.37
76868;BME280;66168;45.478;11.060;2024-02-26T09:58:59;99875.91;;;11.83;61.07
76868;BME280;66168;45.478;11.060;2024-02-26T10:01:26;99870.63;;;11.83;61.22
76868;BME280;66168;45.478;11.060;2024-02-26T10:03:57;99874.68;;;11.85;61.35
76868;BME280;66168;45.478;11.060;2024-02-26T10:06:27;99874.45;;;11.86;61.39
76868;BME280;66168;45.478;11.060;2024-02-26T10:08:56;99879.73;;;11.88;61.35
76868;BME280;66168;45.478;11.060;2024-02-26T10:11:26;99881.17;;;11.92;61.37
76868;BME280;66168;45.478;11.060;2024-02-26T10:13:53;99878.07;;;11.95;61.20
76868;BME280;66168;45.478;11.060;2024-02-26T10:16:20;99875.33;;;11.96;61.27
76868;BME280;66168;45.478;11.060;2024-02-26T10:18:53;99869.91;;;11.99;61.17
76868;BME280;66168;45.478;11.060;2024-02-26T10:21:25;99868.45;;;12.04;61.04
76868;BME280;66168;45.478;11.060;2024-02-26T10:23:53;99869.52;;;12.12;60.82
76868;BME280;66168;45.478;11.060;2024-02-26T10:26:21;99873.28;;;12.14;60.85
76868;BME280;66168;45.478;11.060;2024-02-26T10:28:48;99870.12;;;12.10;60.37
76868;BME280;66168;45.478;11.060;2024-02-26T10:31:20;99867.71;;;12.12;60.93
76868;BME280;66168;45.478;11.060;2024-02-26T10:33:47;99867.95;;;12.12;61.22
76868;BME280;66168;45.478;11.060;2024-02-26T10:36:14;99866.27;;;12.06;61.21
76868;BME280;66168;45.478;11.060;2024-02-26T10:38:41;99866.02;;;11.96;61.53
76868;BME280;66168;45.478;11.060;2024-02-26T10:41:13;99869.17;;;11.91;61.54
76868;BME280;66168;45.478;11.060;2024-02-26T10:43:42;99867.90;;;11.90;61.84
76868;BME280;66168;45.478;11.060;2024-02-26T10:46:10;99869.86;;;11.90;62.14
76868;BME280;66168;45.478;11.060;2024-02-26T10:48:36;99872.15;;;11.91;62.25
76868;BME280;66168;45.478;11.060;2024-02-26T10:51:04;99871.27;;;11.90;62.24
76868;BME280;66168;45.478;11.060;2024-02-26T10:53:32;99870.84;;;11.91;62.34
76868;BME280;66168;45.478;11.060;2024-02-26T10:56:04;99870.15;;;11.89;62.36
76868;BME280;66168;45.478;11.060;2024-02-26T10:58:31;99869.34;;;11.87;62.54
76868;BME280;66168;45.478;11.060;2024-02-26T11:00:59;99869.85;;;11.83;62.95
76868;BME280;66168;45.478;11.060;2024-02-26T11:03:27;99869.40;;;11.85;63.53
76868;BME280;66168;45.478;11.060;2024-02-26T11:05:56;99870.51;;;11.89;63.00
76868;BME280;66168;45.478;11.060;2024-02-26T11:08:25;99871.50;;;11.91;62.90
76868;BME280;66168;45.478;11.060;2024-02-26T11:10:53;99869.86;;;11.91;63.05
76868;BME280;66168;45.478;11.060;2024-02-26T11:13:23;99867.16;;;11.94;63.15
76868;BME280;66168;45.478;11.060;2024-02-26T11:15:55;99869.83;;;11.97;63.80
76868;BME280;66168;45.478;11.060;2024-02-26T11:18:26;99867.16;;;11.98;63.57
76868;BME280;66168;45.478;11.060;2024-02-26T11:20:54;99864.70;;;11.95;63.74
76868;BME280;66168;45.478;11.060;2024-02-26T11:23:24;99864.41;;;11.95;64.64
76868;BME280;66168;45.478;11.060;2024-02-26T11:25:52;99865.89;;;11.94;64.62
76868;BME280;66168;45.478;11.060;2024-02-26T11:28:22;99867.98;;;11.92;65.28
76868;BME280;66168;45.478;11.060;2024-02-26T11:30:51;99867.69;;;11.90;66.11
76868;BME280;66168;45.478;11.060;2024-02-26T11:33:19;99864.90;;;11.92;66.44
76868;BME280;66168;45.478;11.060;2024-02-26T11:35:47;99860.11;;;11.95;65.31
76868;BME280;66168;45.478;11.060;2024-02-26T11:38:21;99859.27;;;11.99;65.63
76868;BME280;66168;45.478;11.060;2024-02-26T11:40:49;99857.93;;;12.01;64.95
76868;BME280;66168;45.478;11.060;2024-02-26T11:43:16;99856.00;;;11.96;64.85
76868;BME280;66168;45.478;11.060;2024-02-26T11:48:15;99844.33;;;11.90;64.78
76868;BME280;66168;45.478;11.060;2024-02-26T11:50:49;99844.38;;;11.88;64.38
76868;BME280;66168;45.478;11.060;2024-02-26T11:53:26;99837.89;;;11.83;64.53
76868;BME280;66168;45.478;11.060;2024-02-26T11:58:40;99836.98;;;11.81;64.57
76868;BME280;66168;45.478;11.060;2024-02-26T12:01:36;99835.23;;;11.81;64.41
76868;BME280;66168;45.478;11.060;2024-02-26T12:04:13;99835.13;;;11.80;64.68
76868;BME280;66168;45.478;11.060;2024-02-26T12:06:58;99830.98;;;11.77;64.23
76868;BME280;66168;45.478;11.060;2024-02-26T12:09:31;99833.48;;;11.74;64.95
76868;BME280;66168;45.478;11.060;2024-02-26T12:12:00;99828.60;;;11.71;64.79
76868;BME280;66168;45.478;11.060;2024-02-26T12:14:27;99827.64;;;11.70;65.08
76868;BME280;66168;45.478;11.060;2024-02-26T12:16:56;99822.99;;;11.67;64.88
76868;BME280;66168;45.478;11.060;2024-02-26T12:19:24;99824.95;;;11.65;65.51
76868;BME280;66168;45.478;11.060;2024-02-26T12:21:52;99821.72;;;11.64;65.44
76868;BME280;66168;45.478;11.060;2024-02-26T12:24:22;99819.87;;;11.62;66.32
76868;BME280;66168;45.478;11.060;2024-02-26T12:26:49;99813.15;;;11.61;66.38
76868;BME280;66168;45.478;11.060;2024-02-26T12:29:16;99817.97;;;11.54;65.76
76868;BME280;66168;45.478;11.060;2024-02-26T12:31:43;99824.27;;;11.49;66.58
76868;BME280;66168;45.478;11.060;2024-02-26T12:34:10;99825.13;;;11.48;66.69
76868;BME280;66168;45.478;11.060;2024-02-26T12:36:38;99825.13;;;11.47;67.66
76868;BME280;66168;45.478;11.060;2024-02-26T12:39:06;99822.63;;;11.45;67.35
76868;BME280;66168;45.478;11.060;2024-02-26T12:41:33;99828.23;;;11.40;67.56
76868;BME280;66168;45.478;11.060;2024-02-26T12:44:01;99829.27;;;11.37;67.53
76868;BME280;66168;45.478;11.060;2024-02-26T12:46:28;99829.27;;;11.36;67.94
76868;BME280;66168;45.478;11.060;2024-02-26T12:48:58;99824.84;;;11.33;67.41
76868;BME280;66168;45.478;11.060;2024-02-26T12:51:26;99821.31;;;11.29;68.18
76868;BME280;66168;45.478;11.060;2024-02-26T12:53:55;99826.87;;;11.27;68.01
76868;BME280;66168;45.478;11.060;2024-02-26T12:56:24;99826.45;;;11.25;68.44
76868;BME280;66168;45.478;11.060;2024-02-26T12:58:53;99820.10;;;11.22;67.59